Time;durP1;ratioP1;P1;durP2;ratioP2;P2;SDS_P1;SDS_P2;PMS_P1;PMS_P2;Temp;Humidity;BMP_temperature;BMP_pressure;BME280_temperature;BME280_humidity;BME280_pressure;Samples;Min_cycle;Max_cycle;Signal;HPM_P1;HPM_P2
2022/04/18 00:01:27;;;;;;;2.65;1.15;;;;;;;3.61;61.86;93511.19;5084554;28;20059;-70
2022/04/18 00:03:55;;;;;;;1.95;0.98;;;;;;;3.66;62.17;93500.56;5084027;28;20025;-69
2022/04/18 00:06:20;;;;;;;1.77;1.08;;;;;;;3.74;62.78;93512.38;5084115;28;20028;-70
2022/04/18 00:08:46;;;;;;;1.40;0.73;;;;;;;3.73;62.29;93506.31;5084403;28;20025;-70
2022/04/18 00:11:11;;;;;;;1.92;1.00;;;;;;;3.79;62.56;93492.03;5084252;28;20020;-70
2022/04/18 00:13:37;;;;;;;1.27;0.93;;;;;;;3.68;61.21;93495.81;5084246;28;20059;-70
2022/04/18 00:16:03;;;;;;;2.95;1.10;;;;;;;3.77;62.05;93490.75;5084061;28;20225;-69
2022/04/18 00:18:28;;;;;;;1.92;1.15;;;;;;;3.78;61.72;93492.28;5083967;28;20099;-70
2022/04/18 00:20:53;;;;;;;5.40;1.00;;;;;;;3.60;60.78;93499.84;5084340;28;20054;-70
2022/04/18 00:23:19;;;;;;;2.17;1.00;;;;;;;3.60;60.48;93496.41;5084119;28;20013;-70
2022/04/18 00:25:44;;;;;;;2.50;1.00;;;;;;;3.58;61.37;93493.28;5084208;28;20047;-69
2022/04/18 00:28:10;;;;;;;1.75;0.90;;;;;;;3.56;61.61;93490.94;5083727;28;20310;-69
2022/04/18 00:30:35;;;;;;;1.50;0.88;;;;;;;3.51;61.65;93487.56;5083637;28;20063;-69
2022/04/18 00:33:01;;;;;;;3.42;1.42;;;;;;;3.38;61.90;93479.22;5065913;28;20345;-69
2022/04/18 00:35:26;;;;;;;2.35;1.10;;;;;;;3.34;61.55;93482.69;5083983;28;20016;-69
2022/04/18 00:37:52;;;;;;;2.05;1.10;;;;;;;3.36;61.93;93491.91;5083486;28;20023;-69
2022/04/18 00:40:17;;;;;;;1.98;0.90;;;;;;;3.38;61.20;93481.88;5083628;28;20032;-69
2022/04/18 00:42:43;;;;;;;1.70;1.00;;;;;;;3.44;61.12;93482.63;5083548;28;20025;-70
2022/04/18 00:45:09;;;;;;;2.20;0.85;;;;;;;3.46;62.07;93483.13;5083507;28;20062;-69
2022/04/18 00:47:35;;;;;;;1.60;0.98;;;;;;;3.46;61.36;93477.03;5083417;28;20012;-69
2022/04/18 00:50:02;;;;;;;2.55;0.98;;;;;;;3.52;61.64;93481.19;5083530;28;20019;-69
2022/04/18 00:52:28;;;;;;;1.20;0.70;;;;;;;3.51;60.85;93483.06;5083613;28;20214;-70
2022/04/18 00:54:55;;;;;;;1.75;0.70;;;;;;;3.54;61.71;93479.88;5083327;28;20062;-70
2022/04/18 00:57:23;;;;;;;4.53;1.75;;;;;;;3.62;61.63;93478.47;5083368;28;20024;-70
2022/04/18 00:59:49;;;;;;;5.25;1.48;;;;;;;3.67;61.24;93473.16;5083254;28;20310;-70
2022/04/18 01:02:14;;;;;;;10.25;3.00;;;;;;;3.69;61.24;93480.81;5083225;28;20036;-70
2022/04/18 01:04:40;;;;;;;2.45;1.33;;;;;;;3.69;60.72;93486.06;5083176;28;20016;-70
2022/04/18 01:07:06;;;;;;;2.00;1.23;;;;;;;3.69;61.15;93478.94;5083164;28;20323;-69
2022/04/18 01:09:32;;;;;;;3.03;1.27;;;;;;;3.65;60.97;93475.28;5082877;28;20031;-69
2022/04/18 01:11:58;;;;;;;1.88;0.95;;;;;;;3.64;61.03;93478.19;5083346;28;20043;-69
2022/04/18 01:14:24;;;;;;;1.77;0.90;;;;;;;3.67;61.98;93477.66;5083038;28;20195;-70
2022/04/18 01:16:50;;;;;;;1.23;0.80;;;;;;;3.75;62.25;93477.06;5082900;28;20037;-70
2022/04/18 01:19:16;;;;;;;2.75;1.00;;;;;;;3.73;61.67;93466.78;5083008;28;20345;-70
2022/04/18 01:21:42;;;;;;;1.60;0.90;;;;;;;3.80;61.46;93466.44;5083191;28;20087;-70
2022/04/18 01:28:58;;;;;;;1.65;0.90;;;;;;;3.84;61.07;93458.75;5082980;28;20055;-70
2022/04/18 01:29:36;;;;;;;1.38;0.90;;;;;;;3.80;61.30;93466.44;5083008;28;20059;-70
2022/04/18 01:32:02;;;;;;;1.23;0.82;;;;;;;3.85;61.43;93458.50;5082803;28;20028;-69
2022/04/18 01:34:28;;;;;;;1.17;0.80;;;;;;;3.93;61.43;93457.06;5082811;28;20031;-69
2022/04/18 01:36:54;;;;;;;1.90;1.10;;;;;;;3.99;60.69;93451.47;5082929;28;20021;-69
2022/04/18 01:39:19;;;;;;;1.42;0.85;;;;;;;3.93;60.01;93457.06;5082828;28;20247;-69
2022/04/18 01:41:45;;;;;;;1.83;0.90;;;;;;;3.99;60.44;93445.41;5082818;28;20031;-69
2022/04/18 01:44:11;;;;;;;1.63;1.00;;;;;;;4.00;60.14;93441.69;5082783;28;20067;-69
2022/04/18 01:46:37;;;;;;;1.98;1.02;;;;;;;3.99;59.43;93448.06;5082667;28;20024;-69
2022/04/18 01:49:05;;;;;;;1.45;0.80;;;;;;;3.97;59.33;93434.38;5082531;28;20303;-69
2022/04/18 01:51:31;;;;;;;1.77;1.02;;;;;;;3.94;59.10;93427.78;5064985;28;20306;-69
2022/04/18 01:53:56;;;;;;;2.05;1.00;;;;;;;4.00;59.67;93433.78;5082845;28;20044;-69
2022/04/18 01:56:22;;;;;;;1.85;1.00;;;;;;;4.02;59.75;93434.28;5082301;28;20028;-69
2022/04/18 01:58:48;;;;;;;1.45;0.88;;;;;;;4.02;59.13;93429.03;5081225;28;20024;-70
2022/04/18 02:01:15;;;;;;;1.65;0.80;;;;;;;4.05;59.62;93425.84;5082703;28;20124;-69
2022/04/18 02:03:42;;;;;;;2.10;0.90;;;;;;;3.98;59.12;93426.16;5082592;28;20100;-70
2022/04/18 02:06:08;;;;;;;1.63;1.00;;;;;;;4.03;58.12;93414.78;5082628;28;20025;-69
2022/04/18 02:08:35;;;;;;;3.88;1.60;;;;;;;4.00;58.92;93423.25;5082533;28;20055;-69
2022/04/18 02:11:00;;;;;;;3.28;1.33;;;;;;;4.00;59.31;93410.06;5082393;28;20048;-69
2022/04/18 02:13:28;;;;;;;2.15;1.13;;;;;;;4.04;59.68;93412.91;5082713;28;20028;-69
2022/04/18 02:15:55;;;;;;;2.08;1.10;;;;;;;4.07;60.13;93413.16;5082405;28;20020;-69
2022/04/18 02:18:20;;;;;;;1.83;0.80;;;;;;;4.07;59.75;93402.59;5082358;28;20307;-69
2022/04/18 02:20:46;;;;;;;1.48;0.88;;;;;;;4.14;59.85;93408.28;5083232;28;20032;-69
2022/04/18 02:23:11;;;;;;;2.33;0.82;;;;;;;4.19;60.10;93407.44;5085616;28;20021;-69
2022/04/18 02:25:37;;;;;;;2.05;1.10;;;;;;;4.21;59.73;93407.94;5086136;28;20368;-69
2022/04/18 02:28:03;;;;;;;1.73;1.00;;;;;;;4.26;59.06;93407.88;5086145;28;20389;-69
2022/04/18 02:30:28;;;;;;;1.30;0.60;;;;;;;4.21;58.09;93400.84;5086196;28;20052;-69
2022/04/18 02:32:53;;;;;;;1.45;0.90;;;;;;;4.22;58.40;93407.66;5086136;28;20031;-69
2022/04/18 02:35:21;;;;;;;2.22;1.05;;;;;;;4.27;59.34;93408.66;5085954;28;20066;-69
2022/04/18 02:37:47;;;;;;;2.28;1.00;;;;;;;4.32;59.58;93401.47;5085944;28;20028;-70
2022/04/18 02:40:13;;;;;;;1.70;0.90;;;;;;;4.38;59.20;93405.63;5085896;28;20046;-69
2022/04/18 02:42:40;;;;;;;2.60;0.90;;;;;;;4.40;59.33;93398.19;5085939;28;20024;-69
2022/04/18 02:45:06;;;;;;;1.75;1.13;;;;;;;4.42;59.10;93388.13;5085887;28;20020;-69
2022/04/18 02:47:31;;;;;;;1.35;1.00;;;;;;;4.39;59.14;93385.28;5086122;28;20058;-69
2022/04/18 02:49:56;;;;;;;1.20;0.73;;;;;;;4.45;58.80;93392.06;5085844;28;20288;-69
2022/04/18 02:52:22;;;;;;;1.90;0.88;;;;;;;4.45;58.71;93389.41;5085684;28;20059;-69
2022/04/18 02:54:47;;;;;;;1.40;0.90;;;;;;;4.43;58.34;93392.34;5085675;28;20032;-69
2022/04/18 02:57:13;;;;;;;1.88;0.90;;;;;;;4.48;58.65;93386.22;5085743;28;20032;-69
2022/04/18 02:59:39;;;;;;;0.80;0.60;;;;;;;4.46;59.15;93387.56;5085626;28;20044;-69
2022/04/18 03:02:05;;;;;;;1.98;1.10;;;;;;;4.43;59.88;93386.28;5085488;28;20036;-69
2022/04/18 03:04:30;;;;;;;2.13;1.05;;;;;;;4.46;59.76;93392.84;5085659;28;20086;-69
2022/04/18 03:06:56;;;;;;;1.70;0.70;;;;;;;4.40;58.86;93389.50;5085441;28;20062;-69
2022/04/18 03:09:21;;;;;;;1.23;0.82;;;;;;;4.37;59.25;93388.19;5085421;28;20087;-70
2022/04/18 03:11:46;;;;;;;2.10;1.00;;;;;;;4.35;59.80;93392.19;5085605;28;20025;-69
2022/04/18 03:14:12;;;;;;;1.90;1.02;;;;;;;4.27;60.38;93387.56;5085300;28;20020;-70
2022/04/18 03:16:38;;;;;;;1.95;0.70;;;;;;;4.29;60.94;93385.41;5085345;28;20028;-69
2022/04/18 03:19:03;;;;;;;2.72;1.00;;;;;;;4.30;61.09;93389.66;5085419;28;20036;-69
2022/04/18 03:21:29;;;;;;;1.73;0.82;;;;;;;4.26;61.08;93392.06;5085467;28;20326;-70
2022/04/18 03:23:55;;;;;;;1.02;0.70;;;;;;;4.19;61.56;93384.50;5085070;28;20029;-69
2022/04/18 03:26:20;;;;;;;1.40;0.70;;;;;;;4.13;61.33;93393.56;5085131;28;20024;-69
2022/04/18 03:28:46;;;;;;;2.17;0.77;;;;;;;4.00;61.89;93386.31;5084966;28;20098;-69
2022/04/18 03:31:12;;;;;;;0.98;0.68;;;;;;;3.94;62.06;93390.88;5084640;28;20110;-69
2022/04/18 03:33:37;;;;;;;0.50;0.50;;;;;;;3.67;62.96;93395.97;5084959;28;20025;-70
2022/04/18 03:41:31;;;;;;;1.10;0.70;;;;;;;3.67;63.53;93393.31;5085225;28;20066;-70
2022/04/18 03:43:57;;;;;;;1.63;0.70;;;;;;;3.66;63.66;93395.16;5084803;28;20374;-70
2022/04/18 03:46:23;;;;;;;1.58;0.63;;;;;;;3.66;63.40;93392.50;5084856;28;20051;-69
2022/04/18 03:48:48;;;;;;;1.75;0.80;;;;;;;3.68;63.54;93403.56;5084572;28;20016;-69
2022/04/18 03:51:14;;;;;;;1.77;0.80;;;;;;;3.69;64.69;93394.59;5084547;28;20046;-69
2022/04/18 03:53:39;;;;;;;1.48;0.68;;;;;;;3.67;64.56;93399.38;5084745;28;20028;-69
2022/04/18 03:56:04;;;;;;;1.75;0.73;;;;;;;3.71;63.96;93392.47;5084554;28;20024;-69
2022/04/18 03:58:30;;;;;;;1.48;0.80;;;;;;;3.66;65.05;93405.69;5084678;28;20017;-70
2022/04/18 04:00:55;;;;;;;1.30;0.63;;;;;;;3.66;64.39;93405.69;5084471;28;20082;-69
2022/04/18 04:03:21;;;;;;;1.42;0.75;;;;;;;3.70;64.44;93404.06;5084384;28;20027;-69
2022/04/18 04:05:46;;;;;;;0.93;0.80;;;;;;;3.75;64.46;93405.88;5084363;28;20032;-69
2022/04/18 04:08:12;;;;;;;1.95;1.13;;;;;;;3.82;63.61;93415.00;5084436;28;20222;-69
2022/04/18 04:10:37;;;;;;;1.23;0.73;;;;;;;3.82;63.55;93414.22;5084207;28;20025;-69
2022/04/18 04:13:03;;;;;;;1.23;0.70;;;;;;;3.84;63.38;93411.31;5084698;28;20028;-69
2022/04/18 04:15:28;;;;;;;2.10;0.80;;;;;;;3.86;63.21;93419.72;5084214;28;20052;-69
2022/04/18 04:17:54;;;;;;;1.92;1.00;;;;;;;3.87;63.29;93413.38;5084042;28;20107;-69
2022/04/18 04:20:21;;;;;;;1.55;0.80;;;;;;;3.91;63.31;93409.91;5083822;28;20020;-69
2022/04/18 04:22:48;;;;;;;2.00;1.05;;;;;;;3.93;62.58;93414.88;5083998;28;20227;-69
2022/04/18 04:25:14;;;;;;;2.25;1.30;;;;;;;3.95;62.51;93403.00;5083974;28;20032;-69
2022/04/18 04:27:40;;;;;;;2.25;1.23;;;;;;;3.93;62.42;93404.34;5083760;28;20035;-69
2022/04/18 04:30:06;;;;;;;2.58;1.60;;;;;;;3.96;62.50;93419.59;5083768;28;20020;-70
2022/04/18 04:32:31;;;;;;;3.65;1.85;;;;;;;4.02;62.78;93410.56;5083855;28;20016;-69
2022/04/18 04:34:57;;;;;;;3.17;1.67;;;;;;;4.05;62.76;93410.00;5083593;28;20017;-69
2022/04/18 04:37:22;;;;;;;3.63;1.83;;;;;;;4.12;62.60;93415.72;5083663;28;20066;-69
2022/04/18 04:39:48;;;;;;;4.30;1.20;;;;;;;4.00;61.99;93412.69;5083620;28;20218;-69
2022/04/18 04:42:14;;;;;;;2.22;1.52;;;;;;;3.99;61.99;93419.06;5083594;28;20025;-69
2022/04/18 04:44:40;;;;;;;4.38;1.50;;;;;;;3.82;62.34;93414.22;5082760;28;20016;-69
2022/04/18 04:47:05;;;;;;;2.17;1.33;;;;;;;3.94;62.43;93425.16;5083524;28;20032;-70
2022/04/18 04:49:31;;;;;;;2.92;1.58;;;;;;;4.06;62.47;93419.47;5083645;28;20285;-70
2022/04/18 04:51:56;;;;;;;7.25;3.53;;;;;;;4.14;62.43;93420.72;5083591;28;20017;-70
2022/04/18 04:54:22;;;;;;;4.57;2.80;;;;;;;4.20;62.42;93419.56;5083509;28;20028;-70
2022/04/18 04:56:48;;;;;;;4.03;1.70;;;;;;;4.20;62.29;93420.34;5083313;28;20066;-70
2022/04/18 04:59:13;;;;;;;4.05;1.05;;;;;;;4.32;62.42;93419.94;5083317;28;20028;-70
2022/04/18 05:01:39;;;;;;;6.07;1.02;;;;;;;4.41;61.81;93426.13;5083399;28;20052;-70
2022/04/18 05:04:04;;;;;;;2.47;1.35;;;;;;;4.51;61.33;93421.81;5083468;28;20046;-70
2022/04/18 05:06:30;;;;;;;2.22;1.40;;;;;;;4.53;61.80;93423.09;5083370;28;20024;-69
2022/04/18 05:08:55;;;;;;;3.47;1.63;;;;;;;4.62;61.67;93417.97;5083067;28;20250;-70
2022/04/18 05:11:21;;;;;;;5.28;2.03;;;;;;;4.65;61.20;93419.25;5083216;28;20330;-69
2022/04/18 05:13:47;;;;;;;3.55;1.58;;;;;;;4.70;61.23;93422.59;5065466;28;20103;-69
2022/04/18 05:16:12;;;;;;;6.90;1.95;;;;;;;4.77;61.37;93414.31;5083050;28;20056;-70
2022/04/18 05:18:38;;;;;;;3.47;1.48;;;;;;;4.88;61.37;93422.84;5083113;28;20035;-70
2022/04/18 05:21:03;;;;;;;3.38;1.30;;;;;;;4.93;60.51;93420.16;5083197;28;20052;-70
2022/04/18 05:23:29;;;;;;;4.20;1.98;;;;;;;4.99;60.78;93419.78;5083060;28;20028;-70
2022/04/18 05:25:54;;;;;;;5.43;1.42;;;;;;;5.07;60.10;93420.16;5082810;28;20051;-70
2022/04/18 05:28:20;;;;;;;2.90;1.67;;;;;;;5.11;60.25;93413.22;5082570;28;20040;-70
2022/04/18 05:30:45;;;;;;;3.22;1.70;;;;;;;5.16;59.97;93423.72;5082596;28;20319;-72
2022/04/18 05:33:10;;;;;;;3.60;1.42;;;;;;;5.28;59.49;93425.94;5082799;28;20020;-70
2022/04/18 05:35:36;;;;;;;2.65;1.65;;;;;;;5.34;59.86;93420.25;5082862;28;20093;-69
2022/04/18 05:38:01;;;;;;;7.60;1.80;;;;;;;5.41;59.46;93425.16;5082684;28;20099;-69
2022/04/18 05:40:27;;;;;;;5.15;1.83;;;;;;;5.38;59.28;93423.88;5082727;28;20070;-69
2022/04/18 05:42:54;;;;;;;3.97;1.83;;;;;;;5.41;59.33;93420.69;5082874;28;20024;-69
2022/04/18 05:45:19;;;;;;;5.93;2.15;;;;;;;5.45;59.07;93420.06;5082864;28;20091;-69
2022/04/18 05:47:45;;;;;;;4.60;2.13;;;;;;;5.45;59.26;93426.16;5082645;28;20356;-70
2022/04/18 05:50:11;;;;;;;3.75;1.90;;;;;;;5.48;58.62;93430.09;5082221;28;20048;-69
2022/04/18 05:52:36;;;;;;;4.63;2.58;;;;;;;5.37;57.37;93427.63;5082656;28;20024;-70
2022/04/18 05:55:02;;;;;;;4.47;2.50;;;;;;;5.27;58.16;93424.34;5084487;28;20126;-70
2022/04/18 05:57:28;;;;;;;4.68;2.42;;;;;;;5.26;58.43;93428.84;5086952;28;20075;-69
2022/04/18 05:59:54;;;;;;;9.18;1.85;;;;;;;5.32;57.13;93435.63;5086659;28;20046;-69
2022/04/18 06:02:19;;;;;;;7.85;2.47;;;;;;;5.41;56.79;93436.53;5086590;28;20023;-69
2022/04/18 06:04:45;;;;;;;6.32;2.40;;;;;;;5.38;56.47;93441.59;5086607;28;20020;-70
2022/04/18 06:07:10;;;;;;;5.18;2.22;;;;;;;5.26;56.33;93439.41;5086714;28;20020;-69
2022/04/18 06:09:36;;;;;;;4.13;1.65;;;;;;;5.36;56.67;93433.97;5086708;28;20021;-71
2022/04/18 06:12:02;;;;;;;3.08;1.92;;;;;;;5.49;56.64;93436.94;5086272;28;20067;-70
2022/04/18 06:14:27;;;;;;;6.82;2.25;;;;;;;5.57;56.55;93436.25;5086367;28;20310;-71
2022/04/18 06:16:53;;;;;;;4.55;2.33;;;;;;;5.65;56.71;93440.88;5086068;28;20024;-70
2022/04/18 06:19:18;;;;;;;6.38;2.42;;;;;;;5.69;56.83;93444.50;5086233;28;20095;-71
2022/04/18 06:21:44;;;;;;;4.68;2.30;;;;;;;5.85;56.65;93445.00;5068386;28;20032;-70
2022/04/18 06:24:10;;;;;;;4.97;2.90;;;;;;;5.91;56.16;93443.84;5086450;28;20036;-73
2022/04/18 06:26:36;;;;;;;4.95;2.13;;;;;;;5.98;55.81;93443.47;5086468;28;20032;-73
2022/04/18 06:29:02;;;;;;;6.65;2.90;;;;;;;6.05;54.97;93443.88;5086414;28;20037;-73
2022/04/18 06:31:28;;;;;;;3.88;2.20;;;;;;;6.03;54.43;93443.38;5086111;28;20024;-73
2022/04/18 06:33:53;;;;;;;6.95;2.63;;;;;;;6.02;54.48;93439.97;5086171;28;20028;-73
2022/04/18 06:36:18;;;;;;;8.52;3.25;;;;;;;6.08;53.95;93443.25;5086288;28;20028;-73
2022/04/18 06:38:44;;;;;;;5.32;2.72;;;;;;;6.10;53.47;93435.03;5086103;28;20044;-73
2022/04/18 06:41:09;;;;;;;3.55;2.00;;;;;;;6.13;53.77;93437.88;5084824;28;20051;-73
2022/04/18 06:43:35;;;;;;;6.13;2.78;;;;;;;6.16;53.83;93445.22;5086223;28;20036;-73
2022/04/18 06:46:01;;;;;;;7.13;2.35;;;;;;;6.37;53.05;93455.41;5086046;28;20028;-73
2022/04/18 06:48:26;;;;;;;6.13;2.30;;;;;;;6.30;52.85;93442.56;5085966;28;20028;-76
2022/04/18 06:50:52;;;;;;;3.40;1.90;;;;;;;6.21;53.04;93445.13;5069110;28;20437;-76
2022/04/18 06:53:17;;;;;;;5.00;2.20;;;;;;;6.22;53.41;93445.91;5085791;28;20024;-80
2022/04/18 06:58:26;;;;;;;6.22;2.38;;;;;;;6.16;53.66;93461.09;5084799;28;20047;-72
2022/04/18 07:00:52;;;;;;;7.43;1.73;;;;;;;6.16;52.55;93450.50;5085537;28;20032;-72
2022/04/18 07:03:17;;;;;;;3.08;1.90;;;;;;;6.00;52.72;93450.06;5085517;28;20032;-72
2022/04/18 07:05:43;;;;;;;3.25;2.08;;;;;;;6.03;53.97;93451.31;5085412;28;20024;-72
2022/04/18 07:08:09;;;;;;;4.82;2.50;;;;;;;6.17;53.42;93446.03;5084593;28;20024;-73
2022/04/18 07:10:34;;;;;;;5.82;2.28;;;;;;;6.33;52.40;93444.63;5085714;28;20091;-74
2022/04/18 07:13:00;;;;;;;7.07;2.05;;;;;;;6.31;52.80;93451.28;5085397;28;20020;-74
2022/04/18 07:15:25;;;;;;;3.70;2.00;;;;;;;6.26;52.33;93449.53;5085339;28;20024;-74
2022/04/18 07:17:51;;;;;;;5.25;2.38;;;;;;;6.16;53.23;93447.88;5085248;28;20314;-74
2022/04/18 07:20:17;;;;;;;6.43;1.73;;;;;;;5.96;53.79;93457.00;5085171;28;20096;-73
2022/04/18 07:22:42;;;;;;;8.35;1.88;;;;;;;6.07;53.12;93467.41;5085271;28;20017;-74
2022/04/18 07:25:09;;;;;;;8.45;2.17;;;;;;;6.12;53.26;93452.19;5085197;28;20016;-74
2022/04/18 07:27:34;;;;;;;3.80;2.10;;;;;;;6.18;53.29;93448.34;5089398;28;20039;-73
2022/04/18 07:30:00;;;;;;;3.10;1.85;;;;;;;6.27;53.20;93448.47;5086738;28;20020;-73
2022/04/18 07:32:26;;;;;;;2.55;1.65;;;;;;;6.36;53.39;93448.56;5086437;28;20020;-74
2022/04/18 07:34:53;;;;;;;8.13;2.50;;;;;;;6.53;53.41;93451.34;5067303;28;20028;-72
2022/04/18 07:37:18;;;;;;;4.65;2.00;;;;;;;6.63;52.14;93461.75;5085112;28;20031;-72
2022/04/18 07:39:44;;;;;;;8.32;2.95;;;;;;;6.69;52.25;93451.03;5084901;28;20020;-74
2022/04/18 07:42:09;;;;;;;12.52;1.85;;;;;;;6.66;52.26;93451.66;5084858;28;20333;-73
2022/04/18 07:44:35;;;;;;;6.45;1.88;;;;;;;6.53;52.80;93448.69;5085376;28;20062;-73
2022/04/18 07:47:00;;;;;;;5.78;1.67;;;;;;;6.45;53.00;93461.88;5084864;28;20310;-73
2022/04/18 07:49:25;;;;;;;4.35;2.15;;;;;;;6.46;52.87;93464.22;5085061;28;20027;-73
2022/04/18 07:51:52;;;;;;;4.95;1.92;;;;;;;6.49;52.96;93468.91;5084814;28;20052;-72
2022/04/18 07:54:20;;;;;;;7.68;2.10;;;;;;;6.55;52.06;93467.72;5084522;28;20263;-72
2022/04/18 07:56:46;;;;;;;5.65;2.00;;;;;;;6.43;52.42;93468.25;5084472;28;20218;-73
2022/04/18 07:59:12;;;;;;;5.70;2.00;;;;;;;6.35;52.38;93463.66;5082897;28;20223;-73
2022/04/18 08:01:38;;;;;;;2.45;1.38;;;;;;;6.15;52.90;93475.41;5083705;28;20352;-73
2022/04/18 08:04:04;;;;;;;4.07;2.28;;;;;;;6.11;53.53;93473.66;5084717;28;20044;-74
2022/04/18 08:06:30;;;;;;;8.27;1.80;;;;;;;6.20;53.46;93470.00;5084139;28;20298;-74
2022/04/18 08:08:56;;;;;;;8.65;2.00;;;;;;;6.29;53.72;93467.50;5084143;28;20318;-73
2022/04/18 08:11:21;;;;;;;5.38;2.70;;;;;;;6.25;53.90;93471.00;5084275;28;20020;-75
2022/04/18 08:13:49;;;;;;;2.80;1.45;;;;;;;6.25;54.00;93473.63;5084263;28;20016;-73
2022/04/18 08:16:14;;;;;;;5.57;1.85;;;;;;;6.18;53.62;93474.03;5084086;28;20024;-73
2022/04/18 08:18:44;;;;;;;4.80;2.05;;;;;;;6.03;53.98;93460.03;5066030;28;20016;-72
2022/04/18 08:21:17;;;;;;;2.53;1.67;;;;;;;6.05;54.50;93467.69;5084024;28;20017;-75
2022/04/18 08:23:48;;;;;;;5.38;1.67;;;;;;;6.10;54.40;93475.50;5083958;28;20021;-76
2022/04/18 08:26:13;;;;;;;3.83;2.05;;;;;;;6.16;54.08;93471.69;5084111;28;20061;-76
2022/04/18 08:28:39;;;;;;;7.13;2.08;;;;;;;6.18;54.04;93469.53;5083782;28;20057;-75
2022/04/18 08:31:05;;;;;;;6.05;2.08;;;;;;;6.20;53.87;93469.25;5084112;28;20218;-80
2022/04/18 08:33:31;;;;;;;7.80;2.42;;;;;;;6.23;53.87;93472.09;5083987;28;20218;-76
2022/04/18 08:35:58;;;;;;;6.25;1.45;;;;;;;6.12;54.29;93475.22;5083837;28;20033;-73
2022/04/18 08:38:24;;;;;;;4.43;2.10;;;;;;;5.76;54.28;93471.34;5083639;28;20103;-73
2022/04/18 08:40:51;;;;;;;3.85;1.65;;;;;;;5.78;54.71;93477.13;5083612;28;20028;-73
2022/04/18 08:43:17;;;;;;;4.72;2.00;;;;;;;5.81;55.18;93473.88;5083526;28;20020;-73
2022/04/18 08:45:43;;;;;;;4.85;1.77;;;;;;;5.96;54.92;93477.38;5083414;28;20055;-75
2022/04/18 08:53:38;;;;;;;4.35;1.67;;;;;;;6.14;53.52;93479.13;5083562;28;20039;-77
2022/04/18 08:56:04;;;;;;;4.22;2.00;;;;;;;6.10;54.19;93472.88;5083747;28;20025;-75
2022/04/18 08:58:30;;;;;;;10.45;2.08;;;;;;;6.10;54.14;93478.16;5083257;28;20025;-73
2022/04/18 09:00:59;;;;;;;4.80;2.33;;;;;;;6.16;54.08;93470.91;5083128;28;20021;-73
2022/04/18 09:03:24;;;;;;;4.65;1.75;;;;;;;6.11;53.65;93477.09;5083162;28;20020;-73
2022/04/18 09:06:03;;;;;;;5.47;1.80;;;;;;;6.09;53.70;93479.25;5083412;28;20104;-73
2022/04/18 09:08:29;;;;;;;3.60;1.67;;;;;;;5.89;54.09;93477.72;5083166;28;20222;-77
2022/04/18 09:10:55;;;;;;;8.73;2.20;;;;;;;5.81;54.04;93481.03;5083077;28;20311;-77
2022/04/18 09:13:24;;;;;;;4.63;2.08;;;;;;;5.82;54.02;93472.84;5083492;28;20030;-78
2022/04/18 09:15:49;;;;;;;4.88;1.60;;;;;;;5.90;54.82;93473.22;5083373;28;20321;-79
2022/04/18 09:18:20;;;;;;;3.53;1.33;;;;;;;5.74;54.56;93468.22;5083051;28;20032;-78
2022/04/18 09:20:51;;;;;;;11.40;1.75;;;;;;;5.83;54.69;93476.25;5081115;28;20036;-80
2022/04/18 09:23:25;;;;;;;4.22;1.90;;;;;;;5.95;54.51;93473.16;5081204;28;20032;-80
2022/04/18 09:25:55;;;;;;;4.40;1.77;;;;;;;6.04;53.84;93466.09;5081002;28;20017;-80
2022/04/18 09:28:34;;;;;;;6.13;3.72;;;;;;;6.19;53.89;93465.81;5081072;28;20109;-81
2022/04/18 09:31:07;;;;;;;4.05;2.63;;;;;;;6.23;53.53;93468.66;5061454;28;20058;-80
2022/04/18 09:33:42;;;;;;;;;;;;;;;6.29;53.12;93470.13;5079923;28;20208;-80
2022/04/18 09:36:16;;;;;;;2.35;1.30;;;;;;;6.16;53.04;93458.44;5082749;28;20080;-80
2022/04/18 09:38:45;;;;;;;2.60;1.45;;;;;;;6.37;52.97;93471.28;5083041;28;20032;-81
2022/04/18 09:41:13;;;;;;;3.83;1.75;;;;;;;6.48;52.84;93472.66;5082556;28;20069;-80
2022/04/18 09:43:46;;;;;;;3.08;1.73;;;;;;;6.60;52.19;93472.16;5082739;28;20203;-80
2022/04/18 09:46:12;;;;;;;11.27;5.15;;;;;;;6.68;51.23;93468.03;5082541;28;20036;-80
2022/04/18 09:48:39;;;;;;;13.95;4.90;;;;;;;6.76;50.75;93467.31;5082756;28;20040;-80
2022/04/18 09:51:12;;;;;;;9.80;4.15;;;;;;;6.87;50.58;93457.28;5082927;28;20277;-81
2022/04/18 09:53:43;;;;;;;4.57;2.30;;;;;;;6.94;50.36;93453.13;5082763;28;20091;-82
2022/04/18 09:56:14;;;;;;;3.50;1.30;;;;;;;6.98;48.79;93450.66;5082527;28;20024;-84
2022/04/18 09:58:39;;;;;;;2.10;1.20;;;;;;;6.93;48.70;93446.25;5082489;28;20028;-79
2022/04/18 10:01:06;;;;;;;2.13;1.00;;;;;;;6.83;49.16;93447.25;5082894;28;20091;-79
2022/04/18 10:03:32;;;;;;;2.90;1.40;;;;;;;6.56;49.31;93453.41;5082751;28;20334;-78
2022/04/18 10:05:59;;;;;;;7.00;1.90;;;;;;;6.43;49.55;93448.91;5082865;28;20250;-79
2022/04/18 10:08:26;;;;;;;5.28;2.70;;;;;;;6.33;50.99;93449.13;5082511;28;20016;-79
2022/04/18 10:10:52;;;;;;;5.05;2.00;;;;;;;6.33;51.95;93449.94;5064521;28;20021;-79
2022/04/18 10:13:20;;;;;;;17.75;6.50;;;;;;;6.36;52.51;93441.38;5064914;28;20021;-79
2022/04/18 10:15:48;;;;;;;4.78;2.50;;;;;;;6.45;52.41;93446.75;5082868;28;20239;-79
2022/04/18 10:18:15;;;;;;;4.03;2.10;;;;;;;6.42;50.83;93434.91;5082669;28;20063;-80
2022/04/18 10:21:08;;;;;;;5.00;2.30;;;;;;;6.14;51.25;93434.16;5082353;28;20271;-79
2022/04/18 10:24:11;;;;;;;5.07;2.35;;;;;;;6.03;52.83;93436.22;5082719;28;20017;-78
2022/04/18 10:27:05;;;;;;;4.50;2.00;;;;;;;6.08;53.71;93437.19;5082805;28;20058;-79
2022/04/18 10:29:37;;;;;;;5.55;2.42;;;;;;;6.10;53.56;93438.47;5062882;28;20045;-79
2022/04/18 10:32:04;;;;;;;5.97;2.30;;;;;;;6.18;54.14;93443.06;5082574;28;20034;-78
2022/04/18 10:34:31;;;;;;;4.43;2.00;;;;;;;6.28;53.75;93433.38;5082636;28;20074;-82
2022/04/18 10:37:00;;;;;;;8.45;2.03;;;;;;;6.33;52.21;93434.06;5082408;28;20020;-78
2022/04/18 10:39:36;;;;;;;4.60;1.42;;;;;;;6.36;52.30;93432.66;5082461;28;20029;-79
2022/04/18 10:42:24;;;;;;;3.65;1.90;;;;;;;6.34;50.35;93430.31;5083600;28;20024;-78
2022/04/18 10:45:10;;;;;;;3.78;1.83;;;;;;;6.34;51.64;93432.19;5086228;28;20024;-78
2022/04/18 10:48:11;;;;;;;3.30;1.52;;;;;;;6.41;51.36;93432.56;5086017;28;20126;-82
2022/04/18 10:50:43;;;;;;;2.53;1.15;;;;;;;6.05;49.30;93433.28;5086102;28;20028;-79
2022/04/18 10:53:08;;;;;;;;;;;;;;;5.98;50.21;93423.09;5086247;28;20024;-78
2022/04/18 10:55:35;;;;;;;14.25;2.33;;;;;;;5.99;51.92;93421.25;5086103;28;19950;-80
2022/04/18 10:58:13;;;;;;;8.38;3.90;;;;;;;6.13;51.98;93421.25;5085653;28;20084;-80
2022/04/18 11:00:52;;;;;;;4.40;2.17;;;;;;;6.32;51.61;93426.41;5085720;28;20029;-81
2022/04/18 11:03:36;;;;;;;3.67;1.70;;;;;;;6.45;50.80;93424.81;5085749;28;20025;-80
2022/04/18 11:06:09;;;;;;;3.53;1.83;;;;;;;6.43;50.40;93417.97;5085680;28;20027;-79
2022/04/18 11:08:39;;;;;;;3.95;1.83;;;;;;;6.42;49.37;93408.44;5067845;28;20051;-81
2022/04/18 11:11:06;;;;;;;4.78;1.55;;;;;;;6.50;49.87;93414.91;5085503;28;20027;-79
2022/04/18 11:13:33;;;;;;;3.70;1.80;;;;;;;6.56;49.80;93415.56;5085576;28;20269;-79
2022/04/18 11:16:27;;;;;;;3.65;2.08;;;;;;;6.66;50.67;93415.34;5085334;28;20028;-81
2022/04/18 11:19:09;;;;;;;7.18;1.65;;;;;;;6.75;49.96;93412.75;5085279;28;20032;-77
2022/04/18 11:22:01;;;;;;;2.72;1.45;;;;;;;6.80;49.56;93416.09;5085369;28;20073;-79
2022/04/18 11:24:49;;;;;;;10.32;5.82;;;;;;;6.86;49.56;93408.00;5084769;28;20031;-82
2022/04/18 11:27:31;;;;;;;8.68;2.65;;;;;;;6.89;49.69;93405.56;5084895;28;20070;-82
2022/04/18 11:29:58;;;;;;;;;;;;;;;6.97;49.36;93404.06;5085574;28;20042;-79
2022/04/18 11:32:27;;;;;;;4.32;1.50;;;;;;;6.95;49.27;93412.28;5085049;28;20137;-83
2022/04/18 11:34:55;;;;;;;3.47;1.55;;;;;;;6.91;49.50;93403.38;5084865;28;20226;-79
2022/04/18 11:37:33;;;;;;;2.70;1.38;;;;;;;6.98;48.94;93402.97;5084977;28;20028;-80
2022/04/18 11:40:04;;;;;;;4.57;1.65;;;;;;;7.05;48.39;93410.50;5084911;28;20032;-81
2022/04/18 11:42:31;;;;;;;4.57;2.15;;;;;;;7.05;48.51;93405.22;5084836;28;20135;-80
2022/04/18 11:44:58;;;;;;;2.97;1.20;;;;;;;7.05;47.97;93411.28;5085129;28;20059;-80
2022/04/18 11:47:26;;;;;;;2.78;1.67;;;;;;;7.14;47.33;93403.38;5084838;28;20027;-81
2022/04/18 11:50:03;;;;;;;4.15;1.58;;;;;;;7.18;47.77;93410.41;5083715;28;20188;-79
2022/04/18 11:52:31;;;;;;;6.47;1.42;;;;;;;7.30;46.90;93399.28;5084657;28;20043;-79
2022/04/18 11:55:18;;;;;;;2.30;1.15;;;;;;;7.34;46.96;93402.09;5084779;28;20024;-81
2022/04/18 11:57:48;;;;;;;6.75;1.30;;;;;;;7.37;47.20;93396.22;5084560;28;20036;-80
2022/04/18 12:06:44;;;;;;;3.67;1.85;;;;;;;7.42;47.09;93404.03;5066722;28;20221;-80